createdAt,value
2019-05-13T00:00:15.270Z,101061.56
2019-05-13T00:02:44.030Z,101061.20
2019-05-13T00:05:14.637Z,101056.89
2019-05-13T00:07:43.858Z,101057.78
2019-05-13T00:10:14.677Z,101059.59
2019-05-13T00:12:44.685Z,101054.86
2019-05-13T00:15:14.190Z,101053.76
2019-05-13T00:17:44.694Z,101053.10
2019-05-13T00:20:14.128Z,101051.80
2019-05-13T00:22:44.693Z,101044.86
2019-05-13T00:25:14.460Z,101048.39
2019-05-13T00:27:44.358Z,101050.59
2019-05-13T00:30:14.423Z,101040.97
2019-05-13T00:32:44.634Z,101043.97
2019-05-13T00:35:14.129Z,101045.70
2019-05-13T00:37:44.258Z,101049.59
2019-05-13T00:40:14.326Z,101055.56
2019-05-13T00:42:44.127Z,101050.52
2019-05-13T00:45:14.517Z,101053.52
2019-05-13T00:47:43.801Z,101058.63
2019-05-13T00:50:14.287Z,101060.74
2019-05-13T00:52:44.930Z,101058.45
2019-05-13T00:55:14.852Z,101051.41
2019-05-13T00:57:43.943Z,101051.96
2019-05-13T01:00:14.019Z,101054.63
2019-05-13T01:02:44.631Z,101058.92
2019-05-13T01:05:14.714Z,101054.83
2019-05-13T01:07:44.427Z,101047.27
2019-05-13T01:10:13.649Z,101055.08
2019-05-13T01:12:44.113Z,101049.84
2019-05-13T01:15:13.727Z,101051.66
2019-05-13T01:17:44.436Z,101048.16
2019-05-13T01:20:14.384Z,101052.09
2019-05-13T01:22:44.065Z,101063.85
2019-05-13T01:25:14.464Z,101059.38
2019-05-13T01:27:44.346Z,101056.63
2019-05-13T01:30:13.517Z,101061.34
2019-05-13T01:32:44.585Z,101056.91
2019-05-13T01:35:14.611Z,101056.63
2019-05-13T01:37:45.739Z,101058.44
2019-05-13T01:40:13.738Z,101058.97
2019-05-13T01:42:44.167Z,101061.91
2019-05-13T01:45:13.753Z,101052.56
2019-05-13T01:47:44.095Z,101056.31
2019-05-13T01:50:14.382Z,101053.22
2019-05-13T01:52:44.492Z,101055.84
2019-05-13T01:55:14.617Z,101061.17
2019-05-13T01:57:44.334Z,101060.23
2019-05-13T02:00:14.316Z,101061.25
2019-05-13T02:02:44.502Z,101062.47
2019-05-13T02:05:14.081Z,101059.67
2019-05-13T02:07:56.083Z,101065.97
2019-05-13T02:10:14.757Z,101069.05
2019-05-13T02:12:44.598Z,101062.88
2019-05-13T02:15:14.686Z,101065.03
2019-05-13T02:17:44.828Z,101064.52
2019-05-13T02:20:14.998Z,101069.08
2019-05-13T02:22:44.542Z,101066.09
2019-05-13T02:25:13.920Z,101063.94
2019-05-13T02:27:44.101Z,101066.20
2019-05-13T02:30:16.229Z,101069.59
2019-05-13T02:32:43.895Z,101068.65
2019-05-13T02:35:13.982Z,101074.77
2019-05-13T02:37:43.816Z,101075.98
2019-05-13T02:40:13.893Z,101075.19
2019-05-13T02:42:43.576Z,101077.80
2019-05-13T02:45:13.477Z,101072.47
2019-05-13T02:47:44.371Z,101072.95
2019-05-13T02:50:13.286Z,101071.69
2019-05-13T02:52:44.273Z,101072.52
2019-05-13T02:55:12.707Z,101076.45
2019-05-13T02:57:43.651Z,101075.50
2019-05-13T03:00:12.956Z,101080.69
2019-05-13T03:02:43.736Z,101080.31
2019-05-13T03:05:13.718Z,101081.09
2019-05-13T03:07:43.084Z,101078.48
2019-05-13T03:10:14.060Z,101082.92
2019-05-13T03:12:43.007Z,101080.31
2019-05-13T03:15:13.135Z,101084.39
2019-05-13T03:17:53.072Z,101086.78
2019-05-13T03:20:23.001Z,101089.50
2019-05-13T03:22:52.818Z,101084.42
2019-05-13T03:25:22.624Z,101093.39
2019-05-13T03:27:54.145Z,101089.14
2019-05-13T03:30:25.445Z,101094.05
2019-05-13T03:32:59.802Z,101095.45
2019-05-13T03:35:26.491Z,101096.94
2019-05-13T03:37:53.025Z,101102.69
2019-05-13T03:40:23.102Z,101107.13
2019-05-13T03:42:53.671Z,101111.56
2019-05-13T03:45:24.745Z,101108.23
2019-05-13T03:47:55.593Z,101114.02
2019-05-13T03:50:24.003Z,101113.30
2019-05-13T03:52:52.809Z,101114.66
2019-05-13T03:55:23.196Z,101112.08
2019-05-13T03:57:53.198Z,101120.53
2019-05-13T04:00:23.637Z,101120.19
2019-05-13T04:02:52.985Z,101119.84
2019-05-13T04:05:22.838Z,101121.28
2019-05-13T04:07:52.511Z,101114.34
2019-05-13T04:10:23.079Z,101115.23
2019-05-13T04:12:52.746Z,101116.54
2019-05-13T04:15:23.563Z,101120.09
2019-05-13T04:17:53.412Z,101127.17
2019-05-13T04:20:23.409Z,101134.22
2019-05-13T04:22:53.331Z,101133.88
2019-05-13T04:25:23.150Z,101136.58
2019-05-13T04:27:53.064Z,101128.33
2019-05-13T04:30:22.573Z,101132.34
2019-05-13T04:32:53.288Z,101130.28
2019-05-13T04:35:23.481Z,101128.09
2019-05-13T04:37:53.084Z,101132.06
2019-05-13T04:40:23.166Z,101134.79
2019-05-13T04:42:53.439Z,101135.67
2019-05-13T04:45:23.934Z,101130.92
2019-05-13T04:47:52.960Z,101138.44
2019-05-13T04:50:22.801Z,101152.92
2019-05-13T04:52:52.985Z,101150.34
2019-05-13T04:55:23.016Z,101154.88
2019-05-13T04:57:53.358Z,101143.17
2019-05-13T05:00:49.860Z,101147.56
2019-05-13T05:03:23.097Z,101156.84
2019-05-13T05:05:52.887Z,101146.05
2019-05-13T05:08:24.475Z,101147.81
2019-05-13T05:11:14.484Z,101147.94
2019-05-13T05:14:07.240Z,101142.75
2019-05-13T05:16:57.891Z,101148.48
2019-05-13T05:19:47.581Z,101155.59
2019-05-13T05:22:35.736Z,101158.39
2019-05-13T05:25:07.260Z,101151.42
2019-05-13T05:27:38.734Z,101157.64
2019-05-13T05:30:21.685Z,101158.58
2019-05-13T05:33:07.224Z,101160.82
2019-05-13T05:36:04.254Z,101157.81
2019-05-13T05:38:36.302Z,101164.36
2019-05-13T05:41:07.047Z,101162.28
2019-05-13T05:43:38.417Z,101158.92
2019-05-13T05:46:08.079Z,101165.49
2019-05-13T05:48:41.893Z,101175.17
2019-05-13T05:51:13.062Z,101164.30
2019-05-13T05:53:44.059Z,101165.59
2019-05-13T05:56:15.569Z,101165.78
2019-05-13T05:58:45.730Z,101166.34
2019-05-13T06:01:16.615Z,101172.95
2019-05-13T06:03:45.741Z,101169.13
2019-05-13T06:06:15.462Z,101173.69
2019-05-13T06:08:44.245Z,101170.19
2019-05-13T06:11:13.792Z,101172.83
2019-05-13T06:17:02.508Z,101171.41
2019-05-13T06:19:31.862Z,101176.25
2019-05-13T06:22:02.206Z,101170.02
2019-05-13T06:24:31.311Z,101178.67
2019-05-13T06:27:01.488Z,101171.64
2019-05-13T06:29:31.785Z,101169.20
2019-05-13T06:32:17.097Z,101174.66
2019-05-13T06:34:32.606Z,101168.53
2019-05-13T06:37:01.812Z,101173.84
2019-05-13T06:39:31.664Z,101164.62
2019-05-13T06:42:02.789Z,101169.97
2019-05-13T06:44:31.658Z,101175.72
2019-05-13T06:47:02.671Z,101177.48
2019-05-13T06:49:32.151Z,101170.58
2019-05-13T06:52:01.716Z,101169.66
2019-05-13T06:54:33.019Z,101163.53
2019-05-13T06:57:04.275Z,101161.81
2019-05-13T06:59:31.862Z,101152.59
2019-05-13T07:02:02.124Z,101165.34
2019-05-13T07:04:32.673Z,101158.29
2019-05-13T07:07:10.118Z,101150.41
2019-05-13T07:09:32.285Z,101160.02
2019-05-13T07:12:03.043Z,101166.52
2019-05-13T07:14:32.455Z,101166.89
2019-05-13T07:17:02.111Z,101162.13
2019-05-13T07:19:32.227Z,101162.18
2019-05-13T07:22:02.880Z,101151.24
2019-05-13T07:24:32.311Z,101175.00
2019-05-13T07:27:02.081Z,101159.64
2019-05-13T07:29:32.582Z,101147.34
2019-05-13T07:32:01.726Z,101167.95
2019-05-13T07:34:33.576Z,101166.23
2019-05-13T07:37:02.077Z,101154.39
2019-05-13T07:39:32.748Z,101152.20
2019-05-13T07:42:04.746Z,101146.06
2019-05-13T07:44:32.373Z,101152.27
2019-05-13T07:47:03.369Z,101148.30
2019-05-13T07:49:31.766Z,101143.91
2019-05-13T07:52:01.572Z,101142.13
2019-05-13T07:54:32.557Z,101149.59
2019-05-13T07:57:01.986Z,101158.38
2019-05-13T07:59:31.870Z,101160.14
2019-05-13T08:02:02.095Z,101152.66
2019-05-13T08:04:33.264Z,101151.32
2019-05-13T08:07:01.862Z,101152.14
2019-05-13T08:09:31.907Z,101146.34
2019-05-13T08:12:09.894Z,101157.34
2019-05-13T08:14:32.590Z,101154.30
2019-05-13T08:17:02.588Z,101155.56
2019-05-13T08:19:32.561Z,101155.07
2019-05-13T08:22:02.182Z,101142.64
2019-05-13T08:24:31.541Z,101154.61
2019-05-13T08:27:02.122Z,101147.47
2019-05-13T08:29:32.901Z,101142.17
2019-05-13T08:32:02.694Z,101141.69
2019-05-13T08:34:32.949Z,101138.55
2019-05-13T08:37:02.874Z,101134.58
2019-05-13T08:39:33.452Z,101134.40
2019-05-13T08:42:12.763Z,101137.67
2019-05-13T08:44:32.240Z,101147.78
2019-05-13T08:47:03.104Z,101146.82
2019-05-13T08:49:32.565Z,101148.85
2019-05-13T08:52:01.801Z,101150.17
2019-05-13T08:54:32.910Z,101149.61
2019-05-13T08:57:02.937Z,101150.88
2019-05-13T08:59:31.782Z,101141.91
2019-05-13T09:02:02.889Z,101144.60
2019-05-13T09:04:31.622Z,101150.48
2019-05-13T09:07:02.326Z,101148.78
2019-05-13T09:09:31.563Z,101147.73
2019-05-13T09:12:02.482Z,101146.02
2019-05-13T09:14:32.401Z,101140.67
2019-05-13T09:17:01.873Z,101143.72
2019-05-13T09:19:32.271Z,101153.26
2019-05-13T09:22:02.877Z,101138.20
2019-05-13T09:24:36.667Z,101134.78
2019-05-13T09:27:01.892Z,101143.00
2019-05-13T09:29:32.250Z,101139.86
2019-05-13T09:32:03.687Z,101138.70
2019-05-13T09:34:32.764Z,101125.95
2019-05-13T09:39:32.334Z,101126.34
2019-05-13T09:42:02.662Z,101131.13
2019-05-13T09:44:32.730Z,101138.30
2019-05-13T09:47:02.633Z,101130.76
2019-05-13T09:49:32.844Z,101131.82
2019-05-13T09:52:01.855Z,101132.92
2019-05-13T09:54:32.722Z,101131.02
2019-05-13T09:57:01.725Z,101130.59
2019-05-13T09:59:31.806Z,101129.78
2019-05-13T10:02:03.080Z,101126.81
2019-05-13T10:04:31.857Z,101139.01
2019-05-13T10:07:02.130Z,101138.87
2019-05-13T10:09:32.626Z,101132.73
2019-05-13T10:12:03.064Z,101127.95
2019-05-13T10:14:32.746Z,101122.28
2019-05-13T10:17:05.798Z,101131.40
2019-05-13T10:19:32.391Z,101132.23
2019-05-13T10:24:55.641Z,101123.02
2019-05-13T10:27:25.213Z,101123.16
2019-05-13T10:29:53.708Z,101125.11
2019-05-13T10:32:22.363Z,101130.41
2019-05-13T10:34:52.836Z,101121.24
2019-05-13T10:37:22.101Z,101118.63
2019-05-13T10:39:51.755Z,101117.62
2019-05-13T10:42:22.165Z,101117.48
2019-05-13T10:44:52.340Z,101116.41
2019-05-13T10:47:22.748Z,101108.33
2019-05-13T10:49:52.370Z,101110.86
2019-05-13T10:52:22.892Z,101114.38
2019-05-13T10:54:52.697Z,101112.25
2019-05-13T10:57:21.360Z,101111.80
2019-05-13T10:59:52.487Z,101104.77
2019-05-13T11:02:22.135Z,101107.00
2019-05-13T11:04:51.941Z,101114.61
2019-05-13T11:07:22.499Z,101112.53
2019-05-13T11:09:52.777Z,101097.97
2019-05-13T11:12:22.191Z,101097.30
2019-05-13T11:14:54.002Z,101100.09
2019-05-13T11:17:25.660Z,101095.16
2019-05-13T11:19:51.352Z,101095.52
2019-05-13T11:22:22.302Z,101103.06
2019-05-13T11:24:51.843Z,101105.11
2019-05-13T11:27:20.055Z,101087.55
2019-05-13T11:29:52.341Z,101082.42
2019-05-13T11:32:22.257Z,101080.48
2019-05-13T11:34:53.040Z,101087.55
2019-05-13T11:37:23.211Z,101086.16
2019-05-13T11:39:51.655Z,101076.83
2019-05-13T11:42:22.641Z,101075.75
2019-05-13T11:44:52.747Z,101069.28
2019-05-13T11:47:20.531Z,101068.63
2019-05-13T11:49:51.395Z,101063.05
2019-05-13T11:52:19.086Z,101070.66
2019-05-13T11:54:47.511Z,101060.71
2019-05-13T11:57:15.923Z,101063.00
2019-05-13T11:59:44.338Z,101063.91
2019-05-13T12:02:13.766Z,101062.22
2019-05-13T12:04:43.473Z,101055.36
2019-05-13T12:07:13.499Z,101046.22
2019-05-13T12:09:42.174Z,101044.67
2019-05-13T12:12:13.042Z,101033.92
2019-05-13T12:17:14.214Z,101043.84
2019-05-13T12:19:41.816Z,101047.14
2019-05-13T12:22:12.935Z,101043.53
2019-05-13T12:24:42.282Z,101040.75
2019-05-13T12:27:10.989Z,101029.34
2019-05-13T12:29:43.097Z,101021.95
2019-05-13T12:32:13.519Z,101011.16
2019-05-13T12:34:44.984Z,101022.78
2019-05-13T12:37:12.505Z,101015.89
2019-05-13T12:39:43.869Z,101018.61
2019-05-13T12:42:12.732Z,101011.75
2019-05-13T12:44:59.963Z,101011.46
2019-05-13T12:47:12.290Z,101006.86
2019-05-13T12:49:43.765Z,101006.44
2019-05-13T12:52:13.112Z,101010.09
2019-05-13T12:54:43.713Z,101010.48
2019-05-13T12:57:15.018Z,100999.16
2019-05-13T12:59:43.581Z,101004.84
2019-05-13T13:02:13.416Z,100990.44
2019-05-13T13:05:06.804Z,100995.47
2019-05-13T13:07:13.375Z,100984.85
2019-05-13T13:09:43.262Z,100978.73
2019-05-13T13:12:12.075Z,100973.62
2019-05-13T13:14:44.416Z,100981.94
2019-05-13T13:17:12.888Z,100976.13
2019-05-13T13:19:41.811Z,100967.88
2019-05-13T13:22:13.340Z,100976.45
2019-05-13T13:24:50.533Z,100965.72
2019-05-13T13:27:19.316Z,100966.97
2019-05-13T13:29:43.345Z,100970.18
2019-05-13T13:32:13.478Z,100963.89
2019-05-13T13:34:44.100Z,100960.14
2019-05-13T13:37:11.168Z,100946.55
2019-05-13T13:43:05.318Z,100940.93
2019-05-13T13:45:52.001Z,100943.13
2019-05-13T13:48:04.351Z,100940.92
2019-05-13T13:50:33.736Z,100944.34
2019-05-13T13:53:02.366Z,100929.27
2019-05-13T13:55:32.074Z,100935.34
2019-05-13T13:58:02.254Z,100940.33
2019-05-13T14:00:40.945Z,100931.08
2019-05-13T14:03:06.369Z,100931.03
2019-05-13T14:05:36.252Z,100931.09
2019-05-13T14:06:25.163Z,101133.33
2019-05-13T14:06:32.042Z,101033.23
2019-05-13T14:08:01.797Z,100937.03
2019-05-13T14:10:31.871Z,100932.98
2019-05-13T14:13:04.535Z,100923.11
2019-05-13T14:15:32.016Z,100919.55
2019-05-13T14:18:00.656Z,100922.32
2019-05-13T14:20:29.084Z,100923.14
2019-05-13T14:22:58.265Z,100920.32
2019-05-13T14:25:26.808Z,100913.66
2019-05-13T14:27:55.254Z,100906.27
2019-05-13T14:30:23.671Z,100909.21
2019-05-13T14:32:52.278Z,100900.11
2019-05-13T14:35:22.026Z,100899.77
2019-05-13T14:37:51.941Z,100899.56
2019-05-13T14:40:22.400Z,100875.50
2019-05-13T14:42:52.566Z,100879.67
2019-05-13T14:45:23.686Z,100883.44
2019-05-13T14:47:51.278Z,100889.27
2019-05-13T14:50:21.353Z,100892.62
2019-05-13T14:52:52.296Z,100882.87
2019-05-13T14:55:21.423Z,100874.70
2019-05-13T14:57:52.173Z,100876.33
2019-05-13T15:00:22.009Z,100878.63
2019-05-13T15:02:51.800Z,100883.70
2019-05-13T15:05:22.052Z,100883.80
2019-05-13T15:07:52.862Z,100875.09
2019-05-13T15:10:21.957Z,100878.11
2019-05-13T15:12:52.406Z,100869.31
2019-05-13T15:15:22.359Z,100869.18
2019-05-13T15:17:51.879Z,100870.42
2019-05-13T15:20:21.734Z,100869.02
2019-05-13T15:22:51.942Z,100865.20
2019-05-13T15:25:22.063Z,100871.61
2019-05-13T15:27:52.739Z,100863.38
2019-05-13T15:30:21.805Z,100861.96
2019-05-13T15:32:52.685Z,100858.02
2019-05-13T15:35:20.636Z,100854.05
2019-05-13T15:37:49.044Z,100853.84
2019-05-13T15:40:17.465Z,100865.13
2019-05-13T15:42:46.265Z,100865.27
2019-05-13T15:45:15.217Z,100862.38
2019-05-13T15:47:43.632Z,100854.50
2019-05-13T15:50:12.362Z,100850.23
2019-05-13T15:52:43.215Z,100855.27
2019-05-13T15:55:11.947Z,100833.81
2019-05-13T15:57:42.794Z,100850.77
2019-05-13T16:00:12.639Z,100851.17
2019-05-13T16:02:42.123Z,100854.85
2019-05-13T16:05:11.999Z,100851.37
2019-05-13T16:07:41.732Z,100841.02
2019-05-13T16:10:11.419Z,100844.22
2019-05-13T16:12:39.972Z,100844.98
2019-05-13T16:15:13.119Z,100847.91
2019-05-13T16:17:44.522Z,100847.91
2019-05-13T16:20:10.458Z,100839.37
2019-05-13T16:22:38.887Z,100835.56
2019-05-13T16:25:08.124Z,100856.06
2019-05-13T16:27:36.618Z,100834.25
2019-05-13T16:30:07.742Z,100833.37
2019-05-13T16:32:36.187Z,100857.39
2019-05-13T16:35:06.774Z,100858.58
2019-05-13T16:37:35.203Z,100848.56
2019-05-13T16:40:04.953Z,100851.64
2019-05-13T16:45:48.629Z,100846.73
2019-05-13T16:48:17.049Z,100848.29
2019-05-13T16:50:45.461Z,100851.70
2019-05-13T16:53:13.885Z,100855.31
2019-05-13T16:55:42.537Z,100849.56
2019-05-13T16:58:12.568Z,100848.61
2019-05-13T17:00:42.481Z,100841.28
2019-05-13T17:03:11.570Z,100850.91
2019-05-13T17:05:41.972Z,100850.78
2019-05-13T17:08:10.225Z,100844.29
2019-05-13T17:10:38.641Z,100853.73
2019-05-13T17:13:07.065Z,100846.16
2019-05-13T17:15:35.487Z,100846.39
2019-05-13T17:18:11.735Z,100853.00
2019-05-13T17:20:34.067Z,100845.06
2019-05-13T17:23:02.503Z,100839.09
2019-05-13T17:25:30.912Z,100833.63
2019-05-13T17:27:59.344Z,100837.72
2019-05-13T17:30:27.757Z,100836.66
2019-05-13T17:32:56.183Z,100837.52
2019-05-13T17:35:24.578Z,100845.12
2019-05-13T17:37:53.271Z,100850.53
2019-05-13T17:40:22.460Z,100856.21
2019-05-13T17:42:51.205Z,100853.77
2019-05-13T17:45:21.818Z,100849.18
2019-05-13T17:47:51.844Z,100845.27
2019-05-13T17:50:22.086Z,100847.28
2019-05-13T17:52:51.369Z,100854.05
2019-05-13T17:55:22.078Z,100854.98
2019-05-13T17:57:50.012Z,100850.08
2019-05-13T18:00:18.661Z,100842.67
2019-05-13T18:02:47.094Z,100854.33
2019-05-13T18:05:16.076Z,100843.47
2019-05-13T18:07:44.507Z,100836.98
2019-05-13T18:10:14.473Z,100829.62
2019-05-13T18:12:43.220Z,100835.08
2019-05-13T18:15:11.840Z,100838.17
2019-05-13T18:17:41.819Z,100845.45
2019-05-13T18:20:10.688Z,100841.41
2019-05-13T18:22:41.775Z,100845.07
2019-05-13T18:25:12.115Z,100840.77
2019-05-13T18:27:41.598Z,100837.45
2019-05-13T18:30:11.417Z,100842.25
2019-05-13T18:32:40.032Z,100846.07
2019-05-13T18:35:12.056Z,100841.98
2019-05-13T18:37:41.795Z,100837.09
2019-05-13T18:40:11.583Z,100840.61
2019-05-13T18:42:42.120Z,100842.33
2019-05-13T18:45:11.507Z,100840.92
2019-05-13T18:47:40.162Z,100840.16
2019-05-13T18:50:11.526Z,100841.88
2019-05-13T18:52:42.004Z,100845.55
2019-05-13T18:55:12.405Z,100842.66
2019-05-13T18:57:40.412Z,100844.61
2019-05-13T19:00:11.154Z,100852.66
2019-05-13T19:02:41.495Z,100852.31
2019-05-13T19:05:51.213Z,100850.31
2019-05-13T19:08:21.409Z,100855.41
2019-05-13T19:10:52.070Z,100858.12
2019-05-13T19:13:21.753Z,100852.56
2019-05-13T19:15:51.728Z,100851.86
2019-05-13T19:18:21.444Z,100861.34
2019-05-13T19:20:51.339Z,100857.27
2019-05-13T19:23:19.961Z,100862.42
2019-05-13T19:25:48.362Z,100869.23
2019-05-13T19:28:16.788Z,100866.42
2019-05-13T19:30:45.192Z,100878.23
2019-05-13T19:33:13.605Z,100877.68
2019-05-13T19:35:42.663Z,100884.95
2019-05-13T19:38:12.107Z,100881.85
2019-05-13T19:40:41.941Z,100881.13
2019-05-13T19:43:11.594Z,100871.84
2019-05-13T19:45:41.594Z,100880.52
2019-05-13T19:48:11.880Z,100882.41
2019-05-13T19:50:41.592Z,100882.94
2019-05-13T19:53:12.032Z,100881.53
2019-05-13T19:55:41.486Z,100882.16
2019-05-13T19:58:12.241Z,100886.56
2019-05-13T20:00:42.137Z,100891.05
2019-05-13T20:03:11.715Z,100890.26
2019-05-13T20:05:41.550Z,100903.81
2019-05-13T20:08:10.066Z,100899.84
2019-05-13T20:10:38.505Z,100899.81
2019-05-13T20:13:06.917Z,100899.06
2019-05-13T20:15:35.335Z,100899.79
2019-05-13T20:18:03.734Z,100901.63
2019-05-13T20:20:32.167Z,100902.12
2019-05-13T20:23:01.389Z,100898.55
2019-05-13T20:25:31.198Z,100899.91
2019-05-13T20:28:02.168Z,100899.03
2019-05-13T20:30:30.063Z,100904.77
2019-05-13T20:32:58.469Z,100901.31
2019-05-13T20:35:26.885Z,100901.06
2019-05-13T20:37:55.284Z,100895.77
2019-05-13T20:40:23.714Z,100901.97
2019-05-13T20:42:52.130Z,100906.81
2019-05-13T20:45:22.514Z,100906.85
2019-05-13T20:47:50.678Z,100919.36
2019-05-13T20:50:21.480Z,100917.22
2019-05-13T20:52:51.408Z,100911.41
2019-05-13T20:55:21.804Z,100910.50
2019-05-13T20:57:49.514Z,100920.24
2019-05-13T21:00:18.034Z,100917.16
2019-05-13T21:02:46.446Z,100916.25
2019-05-13T21:05:16.418Z,100921.53
2019-05-13T21:07:44.824Z,100918.86
2019-05-13T21:10:13.484Z,100924.61
2019-05-13T21:12:42.199Z,100926.87
2019-05-13T21:15:12.838Z,100929.12
2019-05-13T21:17:40.803Z,100925.28
2019-05-13T21:20:19.677Z,100932.44
2019-05-13T21:22:39.562Z,100923.64
2019-05-13T21:25:08.339Z,100926.72
2019-05-13T21:27:36.784Z,100933.78
2019-05-13T21:30:06.993Z,100923.67
2019-05-13T21:32:35.462Z,100925.91
2019-05-13T21:35:05.518Z,100930.74
2019-05-13T21:37:33.924Z,100933.84
2019-05-13T21:40:02.523Z,100932.94
2019-05-13T21:42:32.117Z,100929.45
2019-05-13T21:45:01.751Z,100930.36
2019-05-13T21:47:31.193Z,100930.80
2019-05-13T21:49:59.791Z,100922.03
2019-05-13T21:52:28.194Z,100924.67
2019-05-13T21:54:56.618Z,100922.02
2019-05-13T21:57:25.009Z,100921.17
2019-05-13T21:59:53.445Z,100920.29
2019-05-13T22:02:23.397Z,100911.05
2019-05-13T22:04:52.013Z,100918.52
2019-05-13T22:07:22.263Z,100921.13
2019-05-13T22:09:51.326Z,100920.27
2019-05-13T22:12:21.700Z,100920.73
2019-05-13T22:14:51.746Z,100925.53
2019-05-13T22:17:20.211Z,100930.38
2019-05-13T22:19:48.632Z,100934.32
2019-05-13T22:22:17.036Z,100935.22
2019-05-13T22:24:45.434Z,100924.21
2019-05-13T22:27:13.851Z,100922.02
2019-05-13T22:29:42.337Z,100924.21
2019-05-13T22:32:11.280Z,100919.41
2019-05-13T22:34:41.733Z,100925.11
2019-05-13T22:37:11.716Z,100925.09
2019-05-13T22:39:42.151Z,100927.73
2019-05-13T22:42:12.485Z,100926.82
2019-05-13T22:44:41.692Z,100925.05
2019-05-13T22:47:13.080Z,100921.97
2019-05-13T22:49:40.389Z,100924.16
2019-05-13T22:52:11.285Z,100914.05
2019-05-13T22:54:41.054Z,100910.55
2019-05-13T22:57:11.971Z,100907.44
2019-05-13T22:59:41.563Z,100902.16
2019-05-13T23:02:10.096Z,100908.33
2019-05-13T23:04:38.476Z,100901.33
2019-05-13T23:07:06.896Z,100905.29
2019-05-13T23:09:35.294Z,100903.95
2019-05-13T23:12:03.780Z,100904.83
2019-05-13T23:14:32.190Z,100903.12
2019-05-13T23:17:02.164Z,100904.84
2019-05-13T23:19:32.318Z,100896.93
2019-05-13T23:22:01.617Z,100894.72
2019-05-13T23:24:31.219Z,100897.77
2019-05-13T23:27:01.932Z,100893.41
2019-05-13T23:29:31.921Z,100899.98
2019-05-13T23:32:01.419Z,100897.34
2019-05-13T23:34:31.784Z,100900.86
2019-05-13T23:37:00.157Z,100891.19
2019-05-13T23:39:28.559Z,100893.84
2019-05-13T23:41:56.981Z,100894.72
2019-05-13T23:44:28.267Z,100889.00
2019-05-13T23:46:55.567Z,100889.00
2019-05-13T23:49:23.975Z,100883.70
2019-05-13T23:51:52.402Z,100883.73
2019-05-13T23:54:21.341Z,100878.01
2019-05-13T23:56:49.909Z,100881.98
2019-05-13T23:59:18.303Z,100874.95
